Time;durP1;ratioP1;P1;durP2;ratioP2;P2;SDS_P1;SDS_P2;PMS_P1;PMS_P2;Temp;Humidity;BMP_temperature;BMP_pressure;BME280_temperature;BME280_humidity;BME280_pressure;Samples;Min_cycle;Max_cycle;Signal;HPM_P1;HPM_P2
2022/09/21 00:01:22;;;;;;;4.10;0.90;;;11.30;69.30;;;;;;5014420;28;20600;-78
2022/09/21 00:03:53;;;;;;;4.25;0.57;;;11.20;69.30;;;;;;5012785;28;20246;-79
2022/09/21 00:06:23;;;;;;;2.60;0.80;;;11.20;69.30;;;;;;5012952;28;20077;-78
2022/09/21 00:08:52;;;;;;;3.42;0.73;;;11.20;69.50;;;;;;5014395;28;20117;-78
2022/09/21 00:11:22;;;;;;;2.97;0.80;;;11.10;69.50;;;;;;5014301;28;20058;-79
2022/09/21 00:13:53;;;;;;;6.80;1.10;;;11.10;69.50;;;;;;5014460;28;20065;-78
2022/09/21 00:16:22;;;;;;;3.67;0.98;;;11.10;69.50;;;;;;5012724;28;20274;-79
2022/09/21 00:18:50;;;;;;;2.55;0.75;;;11.10;69.40;;;;;;5012528;28;20128;-78
2022/09/21 00:21:18;;;;;;;3.60;1.10;;;11.10;69.30;;;;;;5012707;28;20058;-79
2022/09/21 00:23:46;;;;;;;2.63;0.70;;;11.10;69.30;;;;;;5012553;28;20559;-78
2022/09/21 00:26:16;;;;;;;3.13;0.90;;;11.00;69.30;;;;;;5012974;28;20064;-79
2022/09/21 00:28:45;;;;;;;4.90;0.90;;;11.00;69.50;;;;;;5012600;28;20756;-78
2022/09/21 00:31:17;;;;;;;3.35;0.88;;;10.90;69.60;;;;;;5012449;28;20070;-78
2022/09/21 00:33:44;;;;;;;2.58;0.50;;;10.90;69.50;;;;;;5014045;28;20133;-79
2022/09/21 00:36:14;;;;;;;4.05;0.50;;;10.90;69.40;;;;;;5012327;28;20117;-78
2022/09/21 00:38:42;;;;;;;2.07;0.40;;;10.90;69.30;;;;;;5013805;28;20061;-78
2022/09/21 00:41:12;;;;;;;2.80;0.57;;;10.80;69.30;;;;;;5013472;28;20269;-79
2022/09/21 00:43:45;;;;;;;2.53;0.50;;;10.80;69.40;;;;;;5013849;28;20077;-78
2022/09/21 00:46:18;;;;;;;2.22;0.40;;;10.80;69.30;;;;;;5012526;28;20077;-78
2022/09/21 00:48:46;;;;;;;2.20;0.43;;;10.70;69.20;;;;;;5013478;28;20105;-79
2022/09/21 00:51:13;;;;;;;2.50;0.53;;;10.60;69.50;;;;;;5012259;28;20097;-78
2022/09/21 00:53:41;;;;;;;2.40;0.77;;;10.50;69.70;;;;;;5012171;28;20269;-79
2022/09/21 00:56:11;;;;;;;3.95;1.05;;;10.50;69.80;;;;;;5012141;28;20972;-79
2022/09/21 00:58:44;;;;;;;2.80;1.05;;;10.50;69.80;;;;;;5011922;28;20105;-78
2022/09/21 01:01:15;;;;;;;4.68;1.00;;;10.50;69.70;;;;;;5011800;28;20084;-78
2022/09/21 01:03:44;;;;;;;2.93;0.77;;;10.50;69.70;;;;;;5013196;28;20129;-79
2022/09/21 01:06:12;;;;;;;4.72;0.70;;;10.50;69.60;;;;;;5011780;28;20285;-78
2022/09/21 01:08:40;;;;;;;2.80;0.80;;;10.40;69.50;;;;;;5013143;28;20058;-78
2022/09/21 01:11:25;;;;;;;3.45;1.05;;;10.40;69.70;;;;;;5013087;28;20150;-79
2022/09/21 01:14:08;;;;;;;2.88;0.73;;;10.40;69.70;;;;;;5013241;28;20039;-78
2022/09/21 01:16:42;;;;;;;3.57;0.90;;;10.40;69.70;;;;;;5013097;28;20459;-78
2022/09/21 01:19:25;;;;;;;2.35;0.52;;;10.40;69.60;;;;;;5011862;28;20297;-78
2022/09/21 01:22:00;;;;;;;2.17;0.50;;;10.30;69.60;;;;;;5013297;28;20145;-78
2022/09/21 01:24:46;;;;;;;2.42;0.40;;;10.30;69.80;;;;;;5011395;28;20149;-78
2022/09/21 01:27:45;;;;;;;3.50;0.80;;;10.30;69.90;;;;;;5011353;28;20069;-78
2022/09/21 01:30:17;;;;;;;3.00;0.60;;;10.20;70.10;;;;;;5010748;28;20141;-79
2022/09/21 01:32:49;;;;;;;2.75;0.60;;;10.20;70.30;;;;;;5011737;28;20343;-79
2022/09/21 01:35:21;;;;;;;2.95;0.70;;;10.20;70.10;;;;;;4995173;28;20516;-78
2022/09/21 01:37:54;;;;;;;4.97;0.63;;;10.20;70.10;;;;;;5013015;28;20086;-78
2022/09/21 01:40:24;;;;;;;2.55;0.60;;;10.10;70.10;;;;;;5011269;28;20062;-78
2022/09/21 01:42:54;;;;;;;2.20;0.60;;;10.10;70.10;;;;;;5011373;28;20812;-78
2022/09/21 01:45:27;;;;;;;2.30;0.60;;;10.10;70.10;;;;;;5011567;28;20258;-78
2022/09/21 01:48:45;;;;;;;2.67;0.70;;;10.10;70.10;;;;;;5011723;28;20980;-78
2022/09/21 01:51:15;;;;;;;2.80;0.55;;;10.00;70.00;;;;;;5012529;28;20133;-78
2022/09/21 01:53:48;;;;;;;2.33;0.68;;;10.00;70.30;;;;;;5011284;28;20512;-78
2022/09/21 01:56:21;;;;;;;3.10;0.70;;;10.00;70.50;;;;;;5012737;28;20133;-78
2022/09/21 01:58:57;;;;;;;2.55;0.63;;;9.90;70.50;;;;;;5011275;28;20386;-78
2022/09/21 02:01:29;;;;;;;2.42;0.60;;;9.90;70.70;;;;;;5012677;28;20047;-78
2022/09/21 02:04:01;;;;;;;2.30;0.50;;;9.80;70.80;;;;;;4994565;28;20133;-78
2022/09/21 02:06:30;;;;;;;2.60;0.70;;;9.80;70.90;;;;;;5011094;28;20138;-78
2022/09/21 02:08:57;;;;;;;3.20;0.67;;;9.70;71.10;;;;;;5010352;28;20054;-78
2022/09/21 02:11:24;;;;;;;3.80;0.90;;;9.60;71.20;;;;;;5010969;28;20262;-78
2022/09/21 02:13:54;;;;;;;3.80;0.75;;;9.60;71.40;;;;;;5012750;28;20050;-78
2022/09/21 02:16:33;;;;;;;3.00;0.55;;;9.60;71.50;;;;;;5012551;28;20133;-78
2022/09/21 02:19:11;;;;;;;3.03;0.60;;;9.60;71.50;;;;;;5010542;28;20062;-78
2022/09/21 02:21:50;;;;;;;2.33;0.80;;;9.60;71.50;;;;;;5010306;28;20809;-78
2022/09/21 02:24:25;;;;;;;2.08;0.50;;;9.50;71.50;;;;;;5010454;28;20285;-78
2022/09/21 02:26:58;;;;;;;2.15;0.40;;;9.50;71.70;;;;;;5011690;28;20138;-79
2022/09/21 02:29:28;;;;;;;2.03;0.40;;;9.50;71.80;;;;;;5008605;28;20050;-78
2022/09/21 02:32:04;;;;;;;2.35;0.47;;;9.50;71.80;;;;;;5009410;28;20458;-78
2022/09/21 02:34:38;;;;;;;2.80;0.50;;;9.50;71.80;;;;;;5009563;28;20137;-78
2022/09/21 02:37:12;;;;;;;2.28;0.60;;;9.50;71.80;;;;;;5009244;28;20349;-78
2022/09/21 02:39:48;;;;;;;3.55;0.60;;;9.50;71.80;;;;;;5008764;28;20046;-78
2022/09/21 02:42:20;;;;;;;2.83;0.68;;;9.50;71.70;;;;;;5009111;28;20058;-78
2022/09/21 02:44:52;;;;;;;3.30;0.57;;;9.50;71.50;;;;;;5012204;28;20078;-78
2022/09/21 02:47:27;;;;;;;4.13;0.60;;;9.40;71.40;;;;;;5012050;28;20130;-78
2022/09/21 02:50:01;;;;;;;2.20;0.47;;;9.40;71.30;;;;;;5010300;28;20356;-78
2022/09/21 02:52:30;;;;;;;2.75;0.70;;;9.40;71.20;;;;;;5010490;28;20128;-78
2022/09/21 02:54:58;;;;;;;2.60;0.40;;;9.40;71.20;;;;;;5014886;28;20054;-78
2022/09/21 02:57:26;;;;;;;3.08;0.75;;;9.40;71.20;;;;;;5010248;28;20058;-78
2022/09/21 02:59:53;;;;;;;2.33;0.43;;;9.40;71.10;;;;;;5010004;28;20519;-78
2022/09/21 03:02:22;;;;;;;2.45;0.50;;;9.40;71.10;;;;;;5009809;28;20393;-78
2022/09/21 03:04:49;;;;;;;2.25;0.50;;;9.40;71.10;;;;;;5010192;28;20070;-78
2022/09/21 03:07:16;;;;;;;2.17;0.47;;;9.40;71.10;;;;;;5010208;28;20051;-78
2022/09/21 03:09:44;;;;;;;2.63;0.50;;;9.40;71.20;;;;;;5009806;28;20527;-78
2022/09/21 03:12:11;;;;;;;2.13;0.50;;;9.40;71.20;;;;;;5010560;28;20136;-78
2022/09/21 03:14:38;;;;;;;2.22;0.52;;;9.40;71.20;;;;;;5010144;28;20691;-78
2022/09/21 03:17:04;;;;;;;2.40;0.50;;;9.30;71.20;;;;;;5010031;28;20046;-78
2022/09/21 03:19:33;;;;;;;2.53;0.50;;;9.30;71.20;;;;;;5009749;28;20054;-78
2022/09/21 03:22:00;;;;;;;2.85;0.60;;;9.30;71.20;;;;;;5011323;28;20061;-78
2022/09/21 03:24:45;;;;;;;2.17;0.50;;;9.30;71.10;;;;;;5009940;28;20054;-78
2022/09/21 03:27:13;;;;;;;7.30;1.10;;;9.30;71.10;;;;;;5011086;28;20258;-78
2022/09/21 03:29:40;;;;;;;2.83;0.50;;;9.20;71.10;;;;;;5011144;28;20046;-78
2022/09/21 03:32:07;;;;;;;5.18;0.90;;;9.20;71.10;;;;;;5011341;28;20418;-78
2022/09/21 03:34:35;;;;;;;3.22;0.80;;;9.20;71.00;;;;;;5010357;28;20062;-78
2022/09/21 03:37:04;;;;;;;3.87;0.90;;;9.20;71.00;;;;;;5009827;28;20047;-78
2022/09/21 03:39:31;;;;;;;2.80;0.80;;;9.20;71.10;;;;;;5009463;28;20358;-78
2022/09/21 03:41:59;;;;;;;2.88;0.90;;;9.10;71.10;;;;;;5010862;28;20054;-78
2022/09/21 03:44:26;;;;;;;3.28;0.80;;;9.10;71.10;;;;;;4993186;28;20046;-78
2022/09/21 03:46:53;;;;;;;4.63;0.82;;;9.10;71.20;;;;;;5010671;28;20050;-78
2022/09/21 03:49:20;;;;;;;4.60;0.90;;;9.10;71.20;;;;;;5009392;28;20054;-79
2022/09/21 03:51:49;;;;;;;3.20;0.80;;;9.00;71.20;;;;;;5009870;28;20257;-78
2022/09/21 03:54:16;;;;;;;3.05;0.70;;;9.10;71.20;;;;;;5011656;28;20085;-78
2022/09/21 03:56:43;;;;;;;2.03;0.60;;;9.00;71.10;;;;;;5012902;28;20121;-79
2022/09/21 03:59:10;;;;;;;4.55;0.40;;;9.00;70.90;;;;;;5014037;28;20054;-78
2022/09/21 04:01:38;;;;;;;1.60;0.30;;;9.00;70.90;;;;;;5013135;28;20547;-78
2022/09/21 04:04:05;;;;;;;1.83;0.30;;;9.00;70.80;;;;;;5014442;28;20392;-78
2022/09/21 04:06:32;;;;;;;1.90;0.30;;;9.00;70.80;;;;;;5014079;28;20050;-78
2022/09/21 04:09:02;;;;;;;2.85;0.65;;;9.00;70.80;;;;;;5012360;28;20892;-78
2022/09/21 04:11:31;;;;;;;2.78;0.50;;;9.00;71.00;;;;;;5013103;28;20911;-78
2022/09/21 04:13:58;;;;;;;2.20;0.40;;;8.90;71.10;;;;;;5013078;28;20054;-78
2022/09/21 04:16:26;;;;;;;1.58;0.20;;;8.90;71.30;;;;;;5013895;28;20258;-78
2022/09/21 04:18:54;;;;;;;1.60;0.32;;;8.80;71.40;;;;;;5012487;28;20080;-78
2022/09/21 04:25:35;;;;;;;3.45;0.77;;;8.60;71.60;;;;;;5016145;28;20586;-78
2022/09/21 04:28:02;;;;;;;2.83;0.73;;;8.60;71.70;;;;;;5014161;28;20050;-78
2022/09/21 04:30:29;;;;;;;2.47;0.60;;;8.60;71.80;;;;;;5013529;28;20288;-78
2022/09/21 04:32:56;;;;;;;2.30;0.70;;;8.60;71.80;;;;;;5012352;28;20058;-78
2022/09/21 04:35:23;;;;;;;2.28;0.60;;;8.60;71.80;;;;;;5013926;28;20530;-78
2022/09/21 04:37:50;;;;;;;2.83;0.50;;;8.60;71.60;;;;;;5012074;28;20141;-78
2022/09/21 04:40:17;;;;;;;2.40;0.60;;;8.60;71.40;;;;;;4995591;28;20046;-78
2022/09/21 04:42:51;;;;;;;3.40;0.40;;;8.50;71.50;;;;;;5011993;28;20957;-79
2022/09/21 04:45:18;;;;;;;2.38;0.38;;;8.50;71.70;;;;;;4995823;28;20555;-78
2022/09/21 04:47:45;;;;;;;1.90;0.40;;;8.50;71.70;;;;;;5012030;28;20539;-78
2022/09/21 04:50:12;;;;;;;2.00;0.43;;;8.50;71.60;;;;;;5012219;28;20922;-78
2022/09/21 04:52:39;;;;;;;2.87;0.57;;;8.40;71.70;;;;;;5012244;28;20428;-78
2022/09/21 04:55:07;;;;;;;1.90;0.47;;;8.40;71.90;;;;;;5013584;28;20254;-78
2022/09/21 04:57:35;;;;;;;2.50;0.50;;;8.40;72.20;;;;;;5011761;28;20074;-78
2022/09/21 05:00:04;;;;;;;2.00;0.50;;;8.40;72.20;;;;;;5011262;28;20138;-78
2022/09/21 05:02:31;;;;;;;4.13;0.65;;;8.40;72.20;;;;;;5015502;28;20058;-78
2022/09/21 05:04:58;;;;;;;3.37;0.53;;;8.40;72.00;;;;;;5012513;28;20054;-78
2022/09/21 05:07:25;;;;;;;2.28;0.57;;;8.40;71.90;;;;;;5011853;28;20277;-78
2022/09/21 05:10:03;;;;;;;2.50;0.70;;;8.30;72.00;;;;;;5011315;28;20138;-78
2022/09/21 05:12:33;;;;;;;3.55;0.73;;;8.30;72.10;;;;;;5011778;28;20109;-79
2022/09/21 05:15:02;;;;;;;2.70;0.70;;;8.30;72.10;;;;;;5011967;28;20061;-78
2022/09/21 05:17:29;;;;;;;2.60;0.80;;;8.30;72.10;;;;;;5013211;28;20090;-78
2022/09/21 05:19:56;;;;;;;2.58;0.77;;;8.30;72.30;;;;;;5013001;28;20278;-78
2022/09/21 05:22:23;;;;;;;3.22;0.80;;;8.20;72.50;;;;;;5012849;28;20139;-78
2022/09/21 05:24:50;;;;;;;2.90;0.80;;;8.20;72.40;;;;;;5011712;28;20117;-78
2022/09/21 05:27:17;;;;;;;2.97;0.65;;;8.30;72.50;;;;;;5012662;28;20063;-78
2022/09/21 05:29:45;;;;;;;2.67;0.70;;;8.20;72.50;;;;;;5012377;28;20062;-79
2022/09/21 05:32:23;;;;;;;2.90;0.60;;;8.20;72.50;;;;;;5012472;28;20644;-78
2022/09/21 05:34:56;;;;;;;2.47;0.57;;;8.10;72.60;;;;;;5011767;28;20046;-79
2022/09/21 05:37:39;;;;;;;3.25;0.57;;;8.00;72.70;;;;;;5011526;28;20394;-78
2022/09/21 05:40:09;;;;;;;3.20;0.60;;;8.00;72.90;;;;;;5011141;28;20049;-78
2022/09/21 05:42:37;;;;;;;2.60;0.57;;;8.00;73.10;;;;;;5010902;28;21043;-78
2022/09/21 05:45:06;;;;;;;3.33;0.65;;;8.00;73.10;;;;;;5011009;28;20251;-78
2022/09/21 05:47:39;;;;;;;2.92;0.70;;;8.00;73.00;;;;;;5012438;28;20050;-78
2022/09/21 05:50:20;;;;;;;3.00;0.60;;;8.00;73.10;;;;;;5011762;28;20468;-78
2022/09/21 05:52:54;;;;;;;3.58;0.65;;;8.00;73.10;;;;;;5012563;28;20078;-78
2022/09/21 05:55:28;;;;;;;3.73;0.80;;;8.00;73.00;;;;;;4990624;28;20097;-78
2022/09/21 05:58:02;;;;;;;3.13;0.70;;;8.00;73.00;;;;;;5010881;28;20342;-78
2022/09/21 06:00:39;;;;;;;3.33;0.80;;;8.00;73.00;;;;;;5010796;28;20046;-77
2022/09/21 06:03:27;;;;;;;3.92;0.70;;;8.00;73.00;;;;;;5011281;28;20062;-77
2022/09/21 06:05:55;;;;;;;3.30;0.63;;;8.10;72.90;;;;;;5012003;28;20054;-78
2022/09/21 06:08:23;;;;;;;3.30;0.90;;;8.00;73.00;;;;;;5012654;28;20074;-78
2022/09/21 06:10:50;;;;;;;3.03;0.70;;;8.00;73.20;;;;;;5012114;28;20270;-78
2022/09/21 06:13:18;;;;;;;3.08;0.80;;;8.00;73.10;;;;;;5012185;28;20124;-78
2022/09/21 06:15:45;;;;;;;3.45;0.80;;;8.00;73.20;;;;;;4935647;28;21136;-77
2022/09/21 06:18:12;;;;;;;3.10;0.80;;;8.10;73.30;;;;;;5000873;28;20060;-77
2022/09/21 06:20:41;;;;;;;3.53;0.67;;;8.10;73.40;;;;;;5011778;28;20145;-77
2022/09/21 06:23:09;;;;;;;4.13;1.23;;;8.10;73.40;;;;;;5011780;28;20246;-77
2022/09/21 06:25:37;;;;;;;2.90;1.00;;;8.10;73.60;;;;;;5011585;28;20066;-76
2022/09/21 06:28:04;;;;;;;5.40;1.23;;;8.10;73.60;;;;;;5009518;28;20141;-75
2022/09/21 06:30:33;;;;;;;5.65;0.88;;;8.10;73.60;;;;;;5010063;28;20174;-76
2022/09/21 06:33:06;;;;;;;3.63;0.70;;;8.10;73.60;;;;;;5010280;28;20050;-76
2022/09/21 06:35:35;;;;;;;5.15;1.08;;;8.10;73.70;;;;;;5008010;28;20765;-75
2022/09/21 06:38:05;;;;;;;3.70;0.70;;;8.10;73.70;;;;;;5009409;28;20057;-75
2022/09/21 06:40:34;;;;;;;3.70;1.02;;;8.10;73.80;;;;;;5008107;28;20190;-76
2022/09/21 06:43:06;;;;;;;3.50;0.90;;;8.10;73.80;;;;;;5009609;28;20082;-76
2022/09/21 06:45:33;;;;;;;5.03;1.20;;;8.10;74.00;;;;;;5010077;28;20547;-77
2022/09/21 06:48:00;;;;;;;4.00;1.15;;;8.20;73.90;;;;;;5009889;28;20255;-77
2022/09/21 06:50:27;;;;;;;3.83;0.90;;;8.20;74.00;;;;;;5011558;28;20046;-77
2022/09/21 06:52:54;;;;;;;3.28;1.00;;;8.20;74.00;;;;;;5010393;28;20050;-76
2022/09/21 06:55:22;;;;;;;3.03;0.80;;;8.20;74.30;;;;;;5010259;28;20061;-76
2022/09/21 06:57:50;;;;;;;3.10;0.87;;;8.20;74.50;;;;;;5009940;28;20049;-76
2022/09/21 07:00:17;;;;;;;3.72;1.20;;;8.20;74.50;;;;;;5009338;28;20281;-76
2022/09/21 07:02:45;;;;;;;4.20;0.90;;;8.20;74.70;;;;;;5009128;28;20046;-77
2022/09/21 07:05:12;;;;;;;3.90;1.30;;;8.20;74.80;;;;;;5009399;28;20050;-77
2022/09/21 07:07:40;;;;;;;3.78;1.10;;;8.20;75.20;;;;;;5009442;28;20058;-77
2022/09/21 07:10:08;;;;;;;5.23;1.67;;;8.20;75.20;;;;;;5009642;28;20139;-77
2022/09/21 07:12:36;;;;;;;6.78;1.63;;;8.20;75.70;;;;;;5011716;28;20273;-76
2022/09/21 07:15:05;;;;;;;4.45;1.58;;;8.30;76.50;;;;;;5009497;28;20599;-77
2022/09/21 07:17:32;;;;;;;6.13;1.80;;;8.30;77.00;;;;;;5009707;28;20046;-77
2022/09/21 07:20:00;;;;;;;4.85;1.70;;;8.30;77.70;;;;;;5009514;28;20054;-77
2022/09/21 07:22:29;;;;;;;7.83;2.20;;;8.40;77.60;;;;;;5011153;28;20475;-77
2022/09/21 07:24:56;;;;;;;4.80;1.80;;;8.40;77.90;;;;;;5009980;28;20278;-76
2022/09/21 07:27:24;;;;;;;6.97;1.83;;;8.40;78.20;;;;;;5009508;28;20105;-77
2022/09/21 07:29:53;;;;;;;5.20;1.83;;;8.50;78.70;;;;;;5011593;28;20051;-77
2022/09/21 07:32:20;;;;;;;7.70;2.00;;;8.50;78.80;;;;;;5013868;28;20062;-76
2022/09/21 07:34:47;;;;;;;4.53;1.87;;;8.60;79.00;;;;;;5012708;28;20050;-76
2022/09/21 07:37:15;;;;;;;5.97;2.30;;;8.60;79.20;;;;;;5014406;28;20293;-76
2022/09/21 07:39:42;;;;;;;4.95;2.00;;;8.60;79.30;;;;;;5014220;28;20058;-76
2022/09/21 07:42:09;;;;;;;5.10;1.70;;;8.80;80.00;;;;;;5012863;28;20113;-75
2022/09/21 07:44:36;;;;;;;7.07;2.25;;;8.80;81.00;;;;;;5014347;28;21050;-76
2022/09/21 07:47:05;;;;;;;6.77;2.30;;;8.90;81.40;;;;;;5012828;28;20055;-75
2022/09/21 07:49:32;;;;;;;7.38;2.38;;;9.00;81.70;;;;;;5013918;28;20833;-76
2022/09/21 07:51:59;;;;;;;5.75;1.90;;;9.10;81.80;;;;;;5014252;28;20055;-76
2022/09/21 07:54:26;;;;;;;5.20;1.63;;;9.20;82.20;;;;;;5014363;28;20050;-76
2022/09/21 07:59:37;;;;;;;9.80;2.13;;;9.40;83.00;;;;;;5012235;28;20500;-75
2022/09/21 08:02:06;;;;;;;4.90;1.70;;;9.50;82.50;;;;;;5011272;28;20276;-75
2022/09/21 08:04:33;;;;;;;7.03;1.40;;;9.60;82.50;;;;;;4995782;28;20134;-77
2022/09/21 08:07:00;;;;;;;7.05;1.50;;;9.60;82.70;;;;;;5010996;28;20046;-76
2022/09/21 08:09:27;;;;;;;7.85;1.83;;;9.70;82.70;;;;;;5010265;28;20061;-76
2022/09/21 08:11:55;;;;;;;6.13;1.60;;;9.80;82.90;;;;;;5012657;28;20054;-76
2022/09/21 08:14:22;;;;;;;5.28;1.55;;;10.00;83.00;;;;;;5012578;28;20361;-76
2022/09/21 08:16:49;;;;;;;9.60;1.63;;;10.00;83.30;;;;;;5027406;28;20082;-76
2022/09/21 08:19:17;;;;;;;6.15;1.48;;;10.10;83.30;;;;;;5012177;28;20047;-77
2022/09/21 08:21:45;;;;;;;5.85;1.40;;;10.20;83.40;;;;;;5011990;28;20066;-76
2022/09/21 08:24:13;;;;;;;5.43;1.50;;;10.30;83.50;;;;;;4994746;28;20081;-77
2022/09/21 08:26:40;;;;;;;5.93;1.20;;;10.40;84.00;;;;;;5012538;28;20269;-77
2022/09/21 08:29:07;;;;;;;6.30;1.48;;;10.50;83.70;;;;;;5013526;28;20054;-76
2022/09/21 08:31:34;;;;;;;8.57;1.17;;;10.60;83.70;;;;;;5012219;28;20061;-77
2022/09/21 08:34:01;;;;;;;7.40;1.30;;;10.70;83.70;;;;;;5011735;28;20059;-77
2022/09/21 08:36:29;;;;;;;3.73;1.00;;;10.80;83.50;;;;;;5011792;28;21067;-77
2022/09/21 08:38:56;;;;;;;7.85;1.40;;;10.90;83.70;;;;;;5010471;28;20274;-77
2022/09/21 08:41:31;;;;;;;8.93;1.17;;;11.00;83.50;;;;;;5010580;28;20062;-77
2022/09/21 08:44:05;;;;;;;6.18;1.42;;;11.10;83.50;;;;;;5010504;28;20500;-77
2022/09/21 08:46:34;;;;;;;7.45;1.60;;;11.10;83.50;;;;;;5009522;28;20047;-77
2022/09/21 08:49:06;;;;;;;5.43;1.57;;;11.30;83.30;;;;;;5010810;28;20054;-77
2022/09/21 08:51:38;;;;;;;7.43;1.55;;;11.30;83.20;;;;;;5011125;28;20254;-76
2022/09/21 08:54:13;;;;;;;7.88;1.75;;;11.40;83.10;;;;;;5008800;28;20571;-76
2022/09/21 08:56:41;;;;;;;6.85;1.40;;;11.50;82.90;;;;;;5011004;28;20046;-76
2022/09/21 08:59:14;;;;;;;9.40;1.58;;;11.50;82.20;;;;;;5026131;28;20814;-76
2022/09/21 09:01:54;;;;;;;7.50;1.47;;;11.60;82.00;;;;;;5011326;28;20046;-77
2022/09/21 09:04:44;;;;;;;6.65;1.20;;;11.60;81.90;;;;;;5010913;28;20377;-76
2022/09/21 09:07:24;;;;;;;4.93;1.20;;;11.70;82.00;;;;;;5006811;28;20105;-77
2022/09/21 09:10:12;;;;;;;7.15;1.35;;;11.70;82.40;;;;;;5008610;28;21009;-77
2022/09/21 09:12:53;;;;;;;5.90;0.95;;;11.90;82.30;;;;;;4994073;28;20053;-77
2022/09/21 09:15:32;;;;;;;5.57;0.80;;;12.00;81.70;;;;;;5027505;28;20054;-76
2022/09/21 09:18:09;;;;;;;5.72;0.80;;;12.10;81.10;;;;;;5011022;28;20274;-76
2022/09/21 09:20:39;;;;;;;4.63;0.70;;;12.20;80.50;;;;;;5025188;28;20137;-77
2022/09/21 09:23:13;;;;;;;4.30;0.80;;;12.20;80.10;;;;;;5008912;28;20057;-76
2022/09/21 09:25:46;;;;;;;4.55;0.47;;;12.30;80.20;;;;;;5023190;28;20536;-76
2022/09/21 09:28:24;;;;;;;5.57;0.80;;;12.30;80.00;;;;;;5008610;28;20057;-77
2022/09/21 09:30:59;;;;;;;3.50;0.45;;;12.40;80.20;;;;;;5007746;28;20278;-77
2022/09/21 09:33:30;;;;;;;5.25;0.65;;;12.50;80.00;;;;;;5024683;28;20811;-77
2022/09/21 09:36:02;;;;;;;4.90;0.60;;;12.50;79.70;;;;;;5010483;28;20137;-77
2022/09/21 09:38:36;;;;;;;4.57;0.50;;;12.70;79.50;;;;;;5010347;28;20051;-76
2022/09/21 09:41:41;;;;;;;3.93;0.50;;;12.80;79.30;;;;;;5025685;28;20052;-77
2022/09/21 09:44:30;;;;;;;9.32;0.85;;;13.00;78.20;;;;;;5010592;28;21187;-77
2022/09/21 09:47:07;;;;;;;4.53;0.60;;;13.10;77.80;;;;;;5006817;28;20158;-77
2022/09/21 09:50:13;;;;;;;3.97;0.60;;;13.20;77.30;;;;;;5011949;28;20046;-77
2022/09/21 09:52:44;;;;;;;2.75;0.30;;;13.30;77.00;;;;;;5006083;28;20839;-76
2022/09/21 09:55:20;;;;;;;5.00;0.50;;;13.40;76.10;;;;;;5008583;28;20141;-77
2022/09/21 09:57:48;;;;;;;5.07;0.60;;;13.50;75.00;;;;;;5008919;28;20917;-78
2022/09/21 10:00:18;;;;;;;6.70;0.60;;;13.50;75.20;;;;;;5008985;28;20054;-77
2022/09/21 10:02:49;;;;;;;4.80;0.68;;;13.60;74.90;;;;;;5009113;28;20054;-74
2022/09/21 10:09:24;;;;;;;3.37;0.53;;;13.60;73.70;;;;;;4991993;28;20133;-77
2022/09/21 10:11:54;;;;;;;4.50;0.50;;;13.70;73.30;;;;;;4990881;28;20302;-78
2022/09/21 10:14:24;;;;;;;4.00;0.40;;;13.70;73.00;;;;;;4992336;28;20050;-78
2022/09/21 10:16:52;;;;;;;7.85;0.68;;;13.70;73.10;;;;;;5010213;28;20046;-78
2022/09/21 10:19:22;;;;;;;4.07;0.65;;;13.90;73.50;;;;;;5025167;28;20047;-78
2022/09/21 10:21:56;;;;;;;5.90;0.80;;;13.90;73.60;;;;;;4991346;28;20058;-78
2022/09/21 10:24:25;;;;;;;3.75;0.40;;;14.00;73.40;;;;;;5003238;28;20278;-78
2022/09/21 10:26:56;;;;;;;3.33;0.45;;;14.10;73.20;;;;;;4992768;28;20047;-78
2022/09/21 10:29:32;;;;;;;3.92;0.40;;;14.20;73.20;;;;;;5010232;28;20062;-78
2022/09/21 10:32:01;;;;;;;4.30;0.52;;;14.30;73.50;;;;;;5011846;28;20052;-78
2022/09/21 10:34:30;;;;;;;4.20;0.40;;;14.30;73.70;;;;;;5010230;28;20141;-79
2022/09/21 10:36:59;;;;;;;3.25;0.32;;;14.40;73.70;;;;;;5010197;28;20301;-78
2022/09/21 10:39:28;;;;;;;5.40;0.70;;;14.50;73.50;;;;;;5009005;28;20097;-78
2022/09/21 10:42:04;;;;;;;5.68;0.60;;;14.60;73.20;;;;;;5007565;28;20057;-79
2022/09/21 10:44:39;;;;;;;4.03;0.40;;;14.80;72.30;;;;;;5009537;28;20078;-78
2022/09/21 10:47:17;;;;;;;4.80;0.60;;;14.90;71.00;;;;;;5006976;28;20077;-78
2022/09/21 10:49:49;;;;;;;6.50;0.65;;;15.00;69.80;;;;;;5007899;28;20392;-78
2022/09/21 10:52:17;;;;;;;2.72;0.30;;;15.00;68.60;;;;;;5007371;28;20058;-78
2022/09/21 10:54:48;;;;;;;5.15;0.70;;;15.10;67.90;;;;;;5008505;28;20082;-78
2022/09/21 10:57:19;;;;;;;5.53;0.70;;;15.20;67.20;;;;;;5004393;28;20063;-76
2022/09/21 10:59:46;;;;;;;3.13;0.40;;;15.20;66.20;;;;;;5009286;28;20058;-77
2022/09/21 11:02:36;;;;;;;3.05;0.47;;;15.30;65.70;;;;;;5009951;28;20299;-77
2022/09/21 11:05:12;;;;;;;4.05;0.50;;;15.40;65.20;;;;;;5014864;28;20149;-79
2022/09/21 11:07:45;;;;;;;3.17;0.32;;;15.50;64.50;;;;;;5013433;28;20053;-77
2022/09/21 11:10:19;;;;;;;3.60;0.50;;;15.50;63.20;;;;;;4999780;28;20058;-76
2022/09/21 11:13:11;;;;;;;3.60;0.47;;;15.60;64.00;;;;;;5012597;28;20057;-76
2022/09/21 11:15:45;;;;;;;1.77;0.20;;;15.60;62.60;;;;;;5013502;28;20282;-76
2022/09/21 11:18:18;;;;;;;3.45;0.40;;;15.70;60.90;;;;;;5012989;28;20058;-77
2022/09/21 11:20:50;;;;;;;3.65;0.60;;;15.80;60.70;;;;;;5013921;28;20235;-77
2022/09/21 11:23:29;;;;;;;5.70;0.63;;;15.80;60.70;;;;;;5012512;28;20056;-78
2022/09/21 11:26:03;;;;;;;3.40;0.50;;;15.80;61.40;;;;;;5011515;28;20050;-77
2022/09/21 11:28:39;;;;;;;6.22;0.70;;;15.90;61.70;;;;;;5012799;28;20255;-77
2022/09/21 11:31:23;;;;;;;3.90;0.50;;;16.00;61.40;;;;;;5025647;28;20126;-77
2022/09/21 11:34:04;;;;;;;2.40;0.38;;;16.10;62.20;;;;;;5010196;28;20047;-77
2022/09/21 11:36:42;;;;;;;3.55;0.32;;;16.20;62.50;;;;;;5010948;28;20057;-81
2022/09/21 11:39:20;;;;;;;3.67;0.50;;;16.40;62.50;;;;;;5011940;28;20134;-75
2022/09/21 11:42:13;;;;;;;5.05;0.45;;;16.40;62.00;;;;;;4995390;28;20257;-75
2022/09/21 11:44:54;;;;;;;3.92;0.60;;;16.50;61.30;;;;;;5011469;28;20053;-76
2022/09/21 11:47:39;;;;;;;3.50;0.60;;;16.60;60.50;;;;;;5011202;28;20540;-75
2022/09/21 11:50:23;;;;;;;4.53;0.50;;;16.70;60.10;;;;;;5012126;28;20546;-76
2022/09/21 11:53:32;;;;;;;4.10;0.50;;;16.80;60.20;;;;;;5012854;28;20061;-76
2022/09/21 11:56:22;;;;;;;2.95;0.68;;;16.90;60.60;;;;;;4977826;28;20270;-76
2022/09/21 11:59:04;;;;;;;4.40;0.60;;;17.00;60.00;;;;;;5007872;28;20054;-76
2022/09/21 12:01:47;;;;;;;3.92;0.50;;;17.00;59.60;;;;;;5011049;28;20042;-76
2022/09/21 12:04:43;;;;;;;3.70;0.50;;;17.20;58.00;;;;;;4996852;28;20432;-78
2022/09/21 12:07:32;;;;;;;4.43;0.57;;;17.20;56.70;;;;;;5007809;28;20495;-77
2022/09/21 12:10:23;;;;;;;5.68;0.70;;;17.30;58.50;;;;;;5012538;28;20278;-76
2022/09/21 12:12:54;;;;;;;3.85;0.47;;;17.40;58.00;;;;;;5011765;28;20051;-76
2022/09/21 12:15:26;;;;;;;5.38;0.40;;;17.50;58.20;;;;;;5010904;28;20051;-77
2022/09/21 12:18:03;;;;;;;5.80;0.57;;;17.50;58.40;;;;;;5012306;28;20058;-77
2022/09/21 12:20:37;;;;;;;5.07;0.70;;;17.70;57.70;;;;;;5012739;28;20050;-77
2022/09/21 12:23:11;;;;;;;3.67;0.73;;;17.80;57.30;;;;;;5010366;28;20750;-77
2022/09/21 12:25:41;;;;;;;4.53;0.63;;;17.90;57.10;;;;;;5011446;28;20512;-78
2022/09/21 12:28:16;;;;;;;3.42;0.60;;;18.00;57.20;;;;;;5011390;28;20085;-77
2022/09/21 12:30:47;;;;;;;4.72;0.60;;;18.00;56.40;;;;;;5011053;28;20081;-77
2022/09/21 12:33:24;;;;;;;5.07;0.63;;;18.10;55.90;;;;;;5012990;28;20054;-77
2022/09/21 12:35:55;;;;;;;4.68;0.57;;;18.20;55.80;;;;;;5010434;28;20262;-77
2022/09/21 12:38:27;;;;;;;6.50;0.73;;;18.30;54.60;;;;;;5008154;28;20948;-77
2022/09/21 12:40:59;;;;;;;4.10;0.50;;;18.30;55.10;;;;;;5008534;28;20051;-77
2022/09/21 12:43:35;;;;;;;5.00;0.80;;;18.30;55.70;;;;;;5008946;28;20054;-77
2022/09/21 12:46:07;;;;;;;4.50;0.70;;;18.40;55.50;;;;;;5006307;28;20130;-78
2022/09/21 12:48:38;;;;;;;5.07;0.88;;;18.40;55.20;;;;;;5023783;28;20300;-77
2022/09/21 12:51:12;;;;;;;4.28;0.80;;;18.50;55.10;;;;;;5008766;28;20573;-77
2022/09/21 12:53:43;;;;;;;4.78;0.70;;;18.60;55.00;;;;;;5007080;28;20057;-77
2022/09/21 12:56:15;;;;;;;5.53;0.60;;;18.70;55.00;;;;;;5011359;28;20870;-76
2022/09/21 12:59:06;;;;;;;4.87;0.70;;;18.70;55.50;;;;;;5028078;28;20496;-77
2022/09/21 13:01:37;;;;;;;3.10;0.57;;;18.80;55.10;;;;;;5007561;28;20357;-77
2022/09/21 13:04:42;;;;;;;3.80;0.70;;;18.90;53.80;;;;;;5012378;28;20133;-78
2022/09/21 13:07:36;;;;;;;4.80;0.80;;;19.00;53.50;;;;;;4999204;28;20053;-77
2022/09/21 13:10:19;;;;;;;6.68;0.75;;;19.10;52.50;;;;;;5007140;28;20116;-77
2022/09/21 13:12:53;;;;;;;4.33;0.70;;;19.20;52.80;;;;;;5011063;28;20931;-77
2022/09/21 13:15:25;;;;;;;3.83;0.57;;;19.30;52.10;;;;;;5011434;28;20337;-76
2022/09/21 13:18:04;;;;;;;3.40;0.40;;;19.30;52.30;;;;;;4994414;28;20082;-77
2022/09/21 13:20:38;;;;;;;4.60;0.60;;;19.40;51.80;;;;;;4994373;28;20057;-77
2022/09/21 13:23:06;;;;;;;3.55;0.50;;;19.40;51.50;;;;;;5011574;28;20181;-77
2022/09/21 13:25:36;;;;;;;3.77;0.60;;;19.50;52.00;;;;;;5027486;28;20092;-79
2022/09/21 13:28:08;;;;;;;3.92;0.60;;;19.50;52.10;;;;;;5012571;28;21231;-77